sensor_id;sensor_type;location;lat;lon;timestamp;P1;durP1;ratioP1;P2;durP2;ratioP2
12088;SDS011;6107;49.078;8.578;2022-10-16T00:01:40;3.67;;;2.58;;
12088;SDS011;6107;49.078;8.578;2022-10-16T00:04:06;3.83;;;2.00;;
12088;SDS011;6107;49.078;8.578;2022-10-16T00:06:32;11.07;;;1.60;;
12088;SDS011;6107;49.078;8.578;2022-10-16T00:08:58;7.53;;;1.75;;
12088;SDS011;6107;49.078;8.578;2022-10-16T00:11:27;12.82;;;1.70;;
12088;SDS011;6107;49.078;8.578;2022-10-16T00:13:56;7.53;;;1.80;;
12088;SDS011;6107;49.078;8.578;2022-10-16T00:16:23;6.22;;;1.85;;
12088;SDS011;6107;49.078;8.578;2022-10-16T00:18:49;7.90;;;1.80;;
12088;SDS011;6107;49.078;8.578;2022-10-16T00:21:16;7.40;;;1.70;;
12088;SDS011;6107;49.078;8.578;2022-10-16T00:23:43;11.45;;;1.85;;
12088;SDS011;6107;49.078;8.578;2022-10-16T00:26:10;9.65;;;1.63;;
12088;SDS011;6107;49.078;8.578;2022-10-16T00:28:38;4.80;;;1.83;;
12088;SDS011;6107;49.078;8.578;2022-10-16T00:31:04;7.78;;;1.55;;
12088;SDS011;6107;49.078;8.578;2022-10-16T00:33:31;11.98;;;1.90;;
12088;SDS011;6107;49.078;8.578;2022-10-16T00:35:58;10.45;;;1.75;;
12088;SDS011;6107;49.078;8.578;2022-10-16T00:38:24;5.55;;;1.60;;
12088;SDS011;6107;49.078;8.578;2022-10-16T00:40:49;6.88;;;1.77;;
12088;SDS011;6107;49.078;8.578;2022-10-16T00:46:03;8.32;;;1.60;;
12088;SDS011;6107;49.078;8.578;2022-10-16T00:48:33;9.82;;;1.67;;
12088;SDS011;6107;49.078;8.578;2022-10-16T00:50:59;9.80;;;1.50;;
12088;SDS011;6107;49.078;8.578;2022-10-16T00:53:25;7.95;;;1.55;;
12088;SDS011;6107;49.078;8.578;2022-10-16T00:55:52;10.57;;;1.58;;
12088;SDS011;6107;49.078;8.578;2022-10-16T00:58:18;3.88;;;1.50;;
12088;SDS011;6107;49.078;8.578;2022-10-16T01:00:45;4.03;;;1.48;;
12088;SDS011;6107;49.078;8.578;2022-10-16T01:03:27;8.70;;;1.65;;
12088;SDS011;6107;49.078;8.578;2022-10-16T01:05:59;5.80;;;1.58;;
12088;SDS011;6107;49.078;8.578;2022-10-16T01:08:47;5.82;;;1.60;;
12088;SDS011;6107;49.078;8.578;2022-10-16T01:11:26;6.85;;;1.60;;
12088;SDS011;6107;49.078;8.578;2022-10-16T01:14:11;4.97;;;1.67;;
12088;SDS011;6107;49.078;8.578;2022-10-16T01:16:49;10.25;;;2.22;;
12088;SDS011;6107;49.078;8.578;2022-10-16T01:19:29;9.80;;;1.98;;
12088;SDS011;6107;49.078;8.578;2022-10-16T01:22:05;6.18;;;1.70;;
12088;SDS011;6107;49.078;8.578;2022-10-16T01:24:38;3.05;;;1.65;;
12088;SDS011;6107;49.078;8.578;2022-10-16T01:27:12;10.10;;;2.42;;
12088;SDS011;6107;49.078;8.578;2022-10-16T01:32:39;3.08;;;1.60;;
12088;SDS011;6107;49.078;8.578;2022-10-16T01:37:54;3.33;;;1.60;;
12088;SDS011;6107;49.078;8.578;2022-10-16T01:40:41;3.30;;;1.70;;
12088;SDS011;6107;49.078;8.578;2022-10-16T01:43:25;4.30;;;1.70;;
12088;SDS011;6107;49.078;8.578;2022-10-16T01:45:56;3.72;;;1.80;;
12088;SDS011;6107;49.078;8.578;2022-10-16T01:48:22;4.10;;;1.58;;
12088;SDS011;6107;49.078;8.578;2022-10-16T01:50:52;2.40;;;1.60;;
12088;SDS011;6107;49.078;8.578;2022-10-16T01:53:28;4.65;;;1.48;;
12088;SDS011;6107;49.078;8.578;2022-10-16T01:55:54;3.40;;;1.50;;
12088;SDS011;6107;49.078;8.578;2022-10-16T01:58:22;6.40;;;1.58;;
12088;SDS011;6107;49.078;8.578;2022-10-16T02:00:50;3.53;;;1.50;;
12088;SDS011;6107;49.078;8.578;2022-10-16T02:03:18;3.28;;;1.52;;
12088;SDS011;6107;49.078;8.578;2022-10-16T02:05:46;3.28;;;1.63;;
12088;SDS011;6107;49.078;8.578;2022-10-16T02:08:20;2.83;;;1.67;;
12088;SDS011;6107;49.078;8.578;2022-10-16T02:10:48;5.93;;;1.42;;
12088;SDS011;6107;49.078;8.578;2022-10-16T02:13:26;6.53;;;1.90;;
12088;SDS011;6107;49.078;8.578;2022-10-16T02:15:59;3.92;;;1.70;;
12088;SDS011;6107;49.078;8.578;2022-10-16T02:18:25;4.22;;;1.40;;
12088;SDS011;6107;49.078;8.578;2022-10-16T02:23:53;9.57;;;1.50;;
12088;SDS011;6107;49.078;8.578;2022-10-16T02:26:42;1.88;;;1.40;;
12088;SDS011;6107;49.078;8.578;2022-10-16T02:29:40;4.40;;;1.50;;
12088;SDS011;6107;49.078;8.578;2022-10-16T02:32:13;7.43;;;1.60;;
12088;SDS011;6107;49.078;8.578;2022-10-16T02:34:42;8.00;;;1.58;;
12088;SDS011;6107;49.078;8.578;2022-10-16T02:37:10;5.45;;;1.60;;
12088;SDS011;6107;49.078;8.578;2022-10-16T02:39:36;3.67;;;1.45;;
12088;SDS011;6107;49.078;8.578;2022-10-16T02:42:03;4.93;;;1.45;;
12088;SDS011;6107;49.078;8.578;2022-10-16T02:44:29;10.55;;;1.80;;
12088;SDS011;6107;49.078;8.578;2022-10-16T02:46:54;7.53;;;2.50;;
12088;SDS011;6107;49.078;8.578;2022-10-16T02:49:20;9.93;;;1.88;;
12088;SDS011;6107;49.078;8.578;2022-10-16T02:51:46;5.07;;;1.30;;
12088;SDS011;6107;49.078;8.578;2022-10-16T02:54:11;3.75;;;1.52;;
12088;SDS011;6107;49.078;8.578;2022-10-16T02:56:37;8.00;;;1.70;;
12088;SDS011;6107;49.078;8.578;2022-10-16T02:59:03;2.63;;;1.50;;
12088;SDS011;6107;49.078;8.578;2022-10-16T03:01:29;7.78;;;1.70;;
12088;SDS011;6107;49.078;8.578;2022-10-16T03:03:54;1.88;;;1.20;;
12088;SDS011;6107;49.078;8.578;2022-10-16T03:06:20;4.25;;;1.55;;
12088;SDS011;6107;49.078;8.578;2022-10-16T03:08:45;5.07;;;1.60;;
12088;SDS011;6107;49.078;8.578;2022-10-16T03:11:11;4.80;;;1.70;;
12088;SDS011;6107;49.078;8.578;2022-10-16T03:13:36;6.80;;;1.58;;
12088;SDS011;6107;49.078;8.578;2022-10-16T03:16:02;2.40;;;1.42;;
12088;SDS011;6107;49.078;8.578;2022-10-16T03:18:28;3.67;;;1.60;;
12088;SDS011;6107;49.078;8.578;2022-10-16T03:20:53;1.98;;;1.55;;
12088;SDS011;6107;49.078;8.578;2022-10-16T03:23:19;4.40;;;1.40;;
12088;SDS011;6107;49.078;8.578;2022-10-16T03:25:44;2.88;;;1.52;;
12088;SDS011;6107;49.078;8.578;2022-10-16T03:28:10;6.10;;;1.60;;
12088;SDS011;6107;49.078;8.578;2022-10-16T03:30:35;6.20;;;1.75;;
12088;SDS011;6107;49.078;8.578;2022-10-16T03:33:01;4.07;;;1.42;;
12088;SDS011;6107;49.078;8.578;2022-10-16T03:35:26;6.50;;;1.60;;
12088;SDS011;6107;49.078;8.578;2022-10-16T03:37:52;6.30;;;1.80;;
12088;SDS011;6107;49.078;8.578;2022-10-16T03:40:17;2.08;;;1.50;;
12088;SDS011;6107;49.078;8.578;2022-10-16T03:42:43;5.70;;;1.55;;
12088;SDS011;6107;49.078;8.578;2022-10-16T03:45:09;3.47;;;1.42;;
12088;SDS011;6107;49.078;8.578;2022-10-16T03:47:35;6.25;;;1.50;;
12088;SDS011;6107;49.078;8.578;2022-10-16T03:50:01;7.18;;;1.70;;
12088;SDS011;6107;49.078;8.578;2022-10-16T03:52:26;1.63;;;1.50;;
12088;SDS011;6107;49.078;8.578;2022-10-16T03:54:52;5.75;;;1.60;;
12088;SDS011;6107;49.078;8.578;2022-10-16T03:57:18;6.60;;;1.45;;
12088;SDS011;6107;49.078;8.578;2022-10-16T03:59:43;5.50;;;1.45;;
12088;SDS011;6107;49.078;8.578;2022-10-16T04:02:09;3.20;;;1.65;;
12088;SDS011;6107;49.078;8.578;2022-10-16T04:04:35;4.53;;;1.67;;
12088;SDS011;6107;49.078;8.578;2022-10-16T04:07:00;7.65;;;1.60;;
12088;SDS011;6107;49.078;8.578;2022-10-16T04:09:26;10.48;;;4.63;;
12088;SDS011;6107;49.078;8.578;2022-10-16T04:11:52;11.38;;;7.32;;
12088;SDS011;6107;49.078;8.578;2022-10-16T04:14:17;8.88;;;7.32;;
12088;SDS011;6107;49.078;8.578;2022-10-16T04:16:43;8.73;;;3.83;;
12088;SDS011;6107;49.078;8.578;2022-10-16T04:19:09;9.63;;;1.80;;
12088;SDS011;6107;49.078;8.578;2022-10-16T04:21:35;6.72;;;1.30;;
12088;SDS011;6107;49.078;8.578;2022-10-16T04:24:01;4.75;;;1.30;;
12088;SDS011;6107;49.078;8.578;2022-10-16T04:26:27;2.20;;;1.67;;
12088;SDS011;6107;49.078;8.578;2022-10-16T04:28:53;8.52;;;1.77;;
12088;SDS011;6107;49.078;8.578;2022-10-16T04:31:18;3.33;;;1.70;;
12088;SDS011;6107;49.078;8.578;2022-10-16T04:33:44;5.70;;;1.80;;
12088;SDS011;6107;49.078;8.578;2022-10-16T04:36:10;3.05;;;1.75;;
12088;SDS011;6107;49.078;8.578;2022-10-16T04:38:36;4.43;;;1.80;;
12088;SDS011;6107;49.078;8.578;2022-10-16T04:41:02;6.00;;;1.55;;
12088;SDS011;6107;49.078;8.578;2022-10-16T04:43:28;1.95;;;1.48;;
12088;SDS011;6107;49.078;8.578;2022-10-16T04:45:54;8.85;;;1.75;;
12088;SDS011;6107;49.078;8.578;2022-10-16T04:48:19;4.18;;;1.80;;
12088;SDS011;6107;49.078;8.578;2022-10-16T04:50:45;2.72;;;1.73;;
12088;SDS011;6107;49.078;8.578;2022-10-16T04:53:11;5.93;;;1.83;;
12088;SDS011;6107;49.078;8.578;2022-10-16T04:55:36;4.65;;;1.38;;
12088;SDS011;6107;49.078;8.578;2022-10-16T04:58:02;3.22;;;2.00;;
12088;SDS011;6107;49.078;8.578;2022-10-16T05:00:28;3.47;;;2.90;;
12088;SDS011;6107;49.078;8.578;2022-10-16T05:02:54;6.10;;;2.40;;
12088;SDS011;6107;49.078;8.578;2022-10-16T05:05:20;4.85;;;2.70;;
12088;SDS011;6107;49.078;8.578;2022-10-16T05:07:46;5.38;;;2.22;;
12088;SDS011;6107;49.078;8.578;2022-10-16T05:10:12;4.80;;;3.03;;
12088;SDS011;6107;49.078;8.578;2022-10-16T05:12:38;6.40;;;2.90;;
12088;SDS011;6107;49.078;8.578;2022-10-16T05:15:03;3.60;;;2.50;;
12088;SDS011;6107;49.078;8.578;2022-10-16T05:17:29;4.88;;;2.53;;
12088;SDS011;6107;49.078;8.578;2022-10-16T05:19:55;4.03;;;2.30;;
12088;SDS011;6107;49.078;8.578;2022-10-16T05:22:21;5.05;;;2.30;;
12088;SDS011;6107;49.078;8.578;2022-10-16T05:24:46;4.40;;;2.10;;
12088;SDS011;6107;49.078;8.578;2022-10-16T05:27:12;5.63;;;1.80;;
12088;SDS011;6107;49.078;8.578;2022-10-16T05:29:44;6.38;;;1.85;;
12088;SDS011;6107;49.078;8.578;2022-10-16T05:32:10;7.43;;;1.80;;
12088;SDS011;6107;49.078;8.578;2022-10-16T05:34:36;4.40;;;1.92;;
12088;SDS011;6107;49.078;8.578;2022-10-16T05:37:01;2.08;;;1.33;;
12088;SDS011;6107;49.078;8.578;2022-10-16T05:39:27;6.18;;;1.60;;
12088;SDS011;6107;49.078;8.578;2022-10-16T05:41:52;3.97;;;1.73;;
12088;SDS011;6107;49.078;8.578;2022-10-16T05:44:18;4.82;;;1.45;;
12088;SDS011;6107;49.078;8.578;2022-10-16T05:46:43;3.83;;;1.60;;
12088;SDS011;6107;49.078;8.578;2022-10-16T05:49:11;9.50;;;1.92;;
12088;SDS011;6107;49.078;8.578;2022-10-16T05:51:36;3.30;;;1.60;;
12088;SDS011;6107;49.078;8.578;2022-10-16T05:54:02;2.67;;;1.67;;
12088;SDS011;6107;49.078;8.578;2022-10-16T05:56:27;8.40;;;1.83;;
12088;SDS011;6107;49.078;8.578;2022-10-16T05:58:53;4.95;;;1.40;;
12088;SDS011;6107;49.078;8.578;2022-10-16T06:01:19;2.33;;;1.83;;
12088;SDS011;6107;49.078;8.578;2022-10-16T06:03:45;7.20;;;1.80;;
12088;SDS011;6107;49.078;8.578;2022-10-16T06:06:15;4.20;;;2.70;;
12088;SDS011;6107;49.078;8.578;2022-10-16T06:08:43;4.45;;;2.05;;
12088;SDS011;6107;49.078;8.578;2022-10-16T06:11:10;9.57;;;4.70;;
12088;SDS011;6107;49.078;8.578;2022-10-16T06:13:38;8.35;;;4.95;;
12088;SDS011;6107;49.078;8.578;2022-10-16T06:16:06;9.85;;;4.28;;
12088;SDS011;6107;49.078;8.578;2022-10-16T06:18:33;6.15;;;3.70;;
12088;SDS011;6107;49.078;8.578;2022-10-16T06:20:58;7.57;;;4.10;;
12088;SDS011;6107;49.078;8.578;2022-10-16T06:23:24;11.00;;;4.78;;
12088;SDS011;6107;49.078;8.578;2022-10-16T06:25:50;12.32;;;6.82;;
12088;SDS011;6107;49.078;8.578;2022-10-16T06:28:16;6.70;;;5.75;;
12088;SDS011;6107;49.078;8.578;2022-10-16T06:30:42;45.58;;;25.25;;
12088;SDS011;6107;49.078;8.578;2022-10-16T06:33:11;33.47;;;19.55;;
12088;SDS011;6107;49.078;8.578;2022-10-16T06:35:36;14.80;;;8.02;;
12088;SDS011;6107;49.078;8.578;2022-10-16T06:38:02;9.77;;;5.50;;
12088;SDS011;6107;49.078;8.578;2022-10-16T06:40:27;9.60;;;6.00;;
12088;SDS011;6107;49.078;8.578;2022-10-16T06:42:56;7.13;;;4.97;;
12088;SDS011;6107;49.078;8.578;2022-10-16T06:45:22;9.60;;;4.68;;
12088;SDS011;6107;49.078;8.578;2022-10-16T06:47:47;13.15;;;8.20;;
12088;SDS011;6107;49.078;8.578;2022-10-16T06:50:13;25.30;;;14.35;;
12088;SDS011;6107;49.078;8.578;2022-10-16T06:52:39;22.95;;;14.73;;
12088;SDS011;6107;49.078;8.578;2022-10-16T06:55:05;28.83;;;24.08;;
12088;SDS011;6107;49.078;8.578;2022-10-16T06:57:30;22.45;;;18.60;;
12088;SDS011;6107;49.078;8.578;2022-10-16T06:59:56;10.95;;;7.57;;
12088;SDS011;6107;49.078;8.578;2022-10-16T07:02:21;11.13;;;5.70;;
12088;SDS011;6107;49.078;8.578;2022-10-16T07:04:47;7.60;;;5.60;;
12088;SDS011;6107;49.078;8.578;2022-10-16T07:07:12;10.60;;;8.18;;
12088;SDS011;6107;49.078;8.578;2022-10-16T07:09:38;9.90;;;5.35;;
12088;SDS011;6107;49.078;8.578;2022-10-16T07:12:04;8.75;;;5.07;;
12088;SDS011;6107;49.078;8.578;2022-10-16T07:14:30;6.05;;;3.55;;
12088;SDS011;6107;49.078;8.578;2022-10-16T07:16:55;8.07;;;4.05;;
12088;SDS011;6107;49.078;8.578;2022-10-16T07:19:21;7.55;;;4.40;;
12088;SDS011;6107;49.078;8.578;2022-10-16T07:21:47;5.90;;;3.67;;
12088;SDS011;6107;49.078;8.578;2022-10-16T07:24:13;7.57;;;3.30;;
12088;SDS011;6107;49.078;8.578;2022-10-16T07:26:40;5.13;;;3.40;;
12088;SDS011;6107;49.078;8.578;2022-10-16T07:29:08;6.15;;;3.70;;
12088;SDS011;6107;49.078;8.578;2022-10-16T07:31:38;5.07;;;3.50;;
12088;SDS011;6107;49.078;8.578;2022-10-16T07:34:04;4.72;;;4.22;;
12088;SDS011;6107;49.078;8.578;2022-10-16T07:36:30;7.47;;;4.22;;
12088;SDS011;6107;49.078;8.578;2022-10-16T07:38:56;6.47;;;3.75;;
12088;SDS011;6107;49.078;8.578;2022-10-16T07:41:21;6.28;;;3.65;;
12088;SDS011;6107;49.078;8.578;2022-10-16T07:43:47;4.53;;;3.20;;
12088;SDS011;6107;49.078;8.578;2022-10-16T07:46:15;7.75;;;3.20;;
12088;SDS011;6107;49.078;8.578;2022-10-16T07:48:41;5.78;;;3.28;;
12088;SDS011;6107;49.078;8.578;2022-10-16T07:51:10;6.07;;;3.40;;
12088;SDS011;6107;49.078;8.578;2022-10-16T07:53:36;6.63;;;3.17;;
12088;SDS011;6107;49.078;8.578;2022-10-16T07:56:02;6.65;;;3.53;;
12088;SDS011;6107;49.078;8.578;2022-10-16T07:58:30;5.68;;;4.28;;
12088;SDS011;6107;49.078;8.578;2022-10-16T08:00:56;9.35;;;4.90;;
12088;SDS011;6107;49.078;8.578;2022-10-16T08:03:23;6.55;;;5.13;;
12088;SDS011;6107;49.078;8.578;2022-10-16T08:05:49;8.20;;;3.80;;
12088;SDS011;6107;49.078;8.578;2022-10-16T08:08:15;7.85;;;3.25;;
12088;SDS011;6107;49.078;8.578;2022-10-16T08:10:41;6.32;;;3.88;;
12088;SDS011;6107;49.078;8.578;2022-10-16T08:13:07;4.22;;;2.28;;
12088;SDS011;6107;49.078;8.578;2022-10-16T08:15:33;3.85;;;2.58;;
12088;SDS011;6107;49.078;8.578;2022-10-16T08:17:59;10.35;;;3.33;;
12088;SDS011;6107;49.078;8.578;2022-10-16T08:20:26;4.75;;;3.15;;
12088;SDS011;6107;49.078;8.578;2022-10-16T08:22:53;5.25;;;2.85;;
12088;SDS011;6107;49.078;8.578;2022-10-16T08:25:19;7.90;;;3.22;;
12088;SDS011;6107;49.078;8.578;2022-10-16T08:27:45;6.90;;;3.50;;
12088;SDS011;6107;49.078;8.578;2022-10-16T08:30:11;7.43;;;3.65;;
12088;SDS011;6107;49.078;8.578;2022-10-16T08:32:36;4.00;;;3.20;;
12088;SDS011;6107;49.078;8.578;2022-10-16T08:35:02;3.28;;;2.30;;
12088;SDS011;6107;49.078;8.578;2022-10-16T08:37:31;5.28;;;2.60;;
12088;SDS011;6107;49.078;8.578;2022-10-16T08:39:57;5.55;;;2.45;;
12088;SDS011;6107;49.078;8.578;2022-10-16T08:42:28;10.65;;;2.92;;
12088;SDS011;6107;49.078;8.578;2022-10-16T08:48:14;7.55;;;2.08;;
12088;SDS011;6107;49.078;8.578;2022-10-16T08:50:44;4.78;;;1.83;;
12088;SDS011;6107;49.078;8.578;2022-10-16T08:53:29;3.28;;;1.80;;
12088;SDS011;6107;49.078;8.578;2022-10-16T08:56:00;3.78;;;1.90;;
12088;SDS011;6107;49.078;8.578;2022-10-16T08:58:26;3.33;;;1.90;;
12088;SDS011;6107;49.078;8.578;2022-10-16T09:00:54;3.40;;;1.85;;
12088;SDS011;6107;49.078;8.578;2022-10-16T09:08:58;4.25;;;2.03;;
12088;SDS011;6107;49.078;8.578;2022-10-16T09:19:46;3.40;;;2.00;;
12088;SDS011;6107;49.078;8.578;2022-10-16T09:22:20;2.17;;;1.75;;
12088;SDS011;6107;49.078;8.578;2022-10-16T09:24:51;2.45;;;1.83;;
12088;SDS011;6107;49.078;8.578;2022-10-16T09:27:17;4.13;;;2.00;;
12088;SDS011;6107;49.078;8.578;2022-10-16T09:29:42;4.68;;;2.28;;
12088;SDS011;6107;49.078;8.578;2022-10-16T09:32:12;4.75;;;2.20;;
12088;SDS011;6107;49.078;8.578;2022-10-16T09:34:50;2.55;;;2.10;;
12088;SDS011;6107;49.078;8.578;2022-10-16T09:37:19;2.00;;;1.80;;
12088;SDS011;6107;49.078;8.578;2022-10-16T09:39:48;3.83;;;1.65;;
12088;SDS011;6107;49.078;8.578;2022-10-16T09:42:19;2.03;;;1.80;;
12088;SDS011;6107;49.078;8.578;2022-10-16T09:44:51;4.50;;;1.92;;
12088;SDS011;6107;49.078;8.578;2022-10-16T09:47:20;4.35;;;1.90;;
12088;SDS011;6107;49.078;8.578;2022-10-16T09:49:54;4.38;;;1.73;;
12088;SDS011;6107;49.078;8.578;2022-10-16T09:52:23;3.03;;;1.50;;
12088;SDS011;6107;49.078;8.578;2022-10-16T09:54:49;4.57;;;1.83;;
12088;SDS011;6107;49.078;8.578;2022-10-16T09:57:15;3.17;;;1.95;;
12088;SDS011;6107;49.078;8.578;2022-10-16T09:59:51;3.67;;;1.80;;
12088;SDS011;6107;49.078;8.578;2022-10-16T10:02:19;2.15;;;1.83;;
12088;SDS011;6107;49.078;8.578;2022-10-16T10:04:53;2.72;;;1.65;;
12088;SDS011;6107;49.078;8.578;2022-10-16T10:07:53;4.47;;;1.77;;
12088;SDS011;6107;49.078;8.578;2022-10-16T10:13:17;4.32;;;1.75;;
12088;SDS011;6107;49.078;8.578;2022-10-16T10:15:46;8.02;;;1.73;;
12088;SDS011;6107;49.078;8.578;2022-10-16T10:18:16;2.88;;;1.88;;
12088;SDS011;6107;49.078;8.578;2022-10-16T10:20:44;4.60;;;2.10;;
12088;SDS011;6107;49.078;8.578;2022-10-16T10:25:51;3.33;;;1.70;;
12088;SDS011;6107;49.078;8.578;2022-10-16T10:34:23;2.90;;;1.75;;
12088;SDS011;6107;49.078;8.578;2022-10-16T10:43:03;3.10;;;1.45;;
12088;SDS011;6107;49.078;8.578;2022-10-16T10:45:47;2.80;;;1.80;;
12088;SDS011;6107;49.078;8.578;2022-10-16T10:48:24;2.95;;;1.90;;
12088;SDS011;6107;49.078;8.578;2022-10-16T10:51:08;2.85;;;1.60;;
12088;SDS011;6107;49.078;8.578;2022-10-16T10:56:41;2.97;;;1.52;;
12088;SDS011;6107;49.078;8.578;2022-10-16T11:07:49;3.97;;;1.70;;
12088;SDS011;6107;49.078;8.578;2022-10-16T11:10:20;4.95;;;2.10;;
12088;SDS011;6107;49.078;8.578;2022-10-16T11:12:51;3.20;;;1.80;;
12088;SDS011;6107;49.078;8.578;2022-10-16T11:15:29;10.40;;;2.00;;
12088;SDS011;6107;49.078;8.578;2022-10-16T11:18:05;6.22;;;1.90;;
12088;SDS011;6107;49.078;8.578;2022-10-16T11:20:47;8.13;;;1.88;;
12088;SDS011;6107;49.078;8.578;2022-10-16T11:23:21;4.70;;;1.85;;
12088;SDS011;6107;49.078;8.578;2022-10-16T11:25:51;3.55;;;1.40;;
12088;SDS011;6107;49.078;8.578;2022-10-16T11:28:38;3.80;;;1.90;;
12088;SDS011;6107;49.078;8.578;2022-10-16T11:31:14;2.08;;;1.65;;
12088;SDS011;6107;49.078;8.578;2022-10-16T11:36:53;1.95;;;1.75;;
12088;SDS011;6107;49.078;8.578;2022-10-16T11:39:33;4.88;;;2.22;;
12088;SDS011;6107;49.078;8.578;2022-10-16T11:42:02;2.65;;;1.90;;
12088;SDS011;6107;49.078;8.578;2022-10-16T11:47:48;1.98;;;1.67;;
12088;SDS011;6107;49.078;8.578;2022-10-16T11:50:32;3.72;;;1.67;;
12088;SDS011;6107;49.078;8.578;2022-10-16T11:56:01;2.10;;;1.77;;
12088;SDS011;6107;49.078;8.578;2022-10-16T12:01:10;4.75;;;1.80;;
12088;SDS011;6107;49.078;8.578;2022-10-16T12:09:30;2.88;;;2.00;;
12088;SDS011;6107;49.078;8.578;2022-10-16T12:11:57;3.28;;;1.50;;
12088;SDS011;6107;49.078;8.578;2022-10-16T12:17:00;4.30;;;1.80;;
12088;SDS011;6107;49.078;8.578;2022-10-16T12:19:30;4.47;;;2.05;;
12088;SDS011;6107;49.078;8.578;2022-10-16T12:21:58;4.20;;;1.92;;
12088;SDS011;6107;49.078;8.578;2022-10-16T12:24:38;4.85;;;1.80;;
12088;SDS011;6107;49.078;8.578;2022-10-16T12:27:20;8.98;;;1.85;;
12088;SDS011;6107;49.078;8.578;2022-10-16T12:29:58;4.95;;;1.73;;
12088;SDS011;6107;49.078;8.578;2022-10-16T12:32:33;6.10;;;2.17;;
12088;SDS011;6107;49.078;8.578;2022-10-16T12:35:04;3.50;;;2.03;;
12088;SDS011;6107;49.078;8.578;2022-10-16T12:37:42;6.15;;;1.70;;
12088;SDS011;6107;49.078;8.578;2022-10-16T12:40:13;1.65;;;1.52;;
12088;SDS011;6107;49.078;8.578;2022-10-16T12:42:53;2.40;;;1.90;;
12088;SDS011;6107;49.078;8.578;2022-10-16T12:45:23;2.53;;;1.83;;
12088;SDS011;6107;49.078;8.578;2022-10-16T12:47:57;8.63;;;2.13;;
12088;SDS011;6107;49.078;8.578;2022-10-16T12:50:34;2.83;;;1.85;;
12088;SDS011;6107;49.078;8.578;2022-10-16T12:53:02;6.38;;;1.98;;
12088;SDS011;6107;49.078;8.578;2022-10-16T12:55:43;5.28;;;1.80;;
12088;SDS011;6107;49.078;8.578;2022-10-16T13:00:50;10.32;;;2.05;;
12088;SDS011;6107;49.078;8.578;2022-10-16T13:06:20;6.78;;;2.33;;
12088;SDS011;6107;49.078;8.578;2022-10-16T13:11:37;6.30;;;2.00;;
12088;SDS011;6107;49.078;8.578;2022-10-16T13:20:28;7.68;;;2.17;;
12088;SDS011;6107;49.078;8.578;2022-10-16T13:26:01;4.38;;;1.95;;
12088;SDS011;6107;49.078;8.578;2022-10-16T13:28:32;4.05;;;1.90;;
12088;SDS011;6107;49.078;8.578;2022-10-16T13:30:59;8.75;;;2.00;;
12088;SDS011;6107;49.078;8.578;2022-10-16T13:33:33;8.98;;;2.58;;
12088;SDS011;6107;49.078;8.578;2022-10-16T13:36:07;9.52;;;2.30;;
12088;SDS011;6107;49.078;8.578;2022-10-16T13:39:15;8.18;;;2.45;;
12088;SDS011;6107;49.078;8.578;2022-10-16T13:44:39;9.00;;;2.55;;
12088;SDS011;6107;49.078;8.578;2022-10-16T13:47:27;4.75;;;2.05;;
12088;SDS011;6107;49.078;8.578;2022-10-16T13:50:00;6.07;;;2.30;;
12088;SDS011;6107;49.078;8.578;2022-10-16T13:52:26;8.07;;;2.28;;
12088;SDS011;6107;49.078;8.578;2022-10-16T13:54:52;7.25;;;1.90;;
12088;SDS011;6107;49.078;8.578;2022-10-16T13:57:17;5.22;;;2.08;;
12088;SDS011;6107;49.078;8.578;2022-10-16T13:59:46;5.35;;;2.10;;
12088;SDS011;6107;49.078;8.578;2022-10-16T14:02:17;8.32;;;1.95;;
12088;SDS011;6107;49.078;8.578;2022-10-16T14:04:54;8.40;;;2.35;;
12088;SDS011;6107;49.078;8.578;2022-10-16T14:07:25;14.23;;;2.38;;
12088;SDS011;6107;49.078;8.578;2022-10-16T14:09:53;9.18;;;2.42;;
12088;SDS011;6107;49.078;8.578;2022-10-16T14:12:19;10.88;;;2.50;;
12088;SDS011;6107;49.078;8.578;2022-10-16T14:14:47;14.38;;;2.03;;
12088;SDS011;6107;49.078;8.578;2022-10-16T14:17:18;9.45;;;2.30;;
12088;SDS011;6107;49.078;8.578;2022-10-16T14:19:48;17.35;;;2.85;;
12088;SDS011;6107;49.078;8.578;2022-10-16T14:22:37;9.73;;;2.03;;
12088;SDS011;6107;49.078;8.578;2022-10-16T14:27:44;10.70;;;2.88;;
12088;SDS011;6107;49.078;8.578;2022-10-16T14:30:14;5.07;;;2.55;;
12088;SDS011;6107;49.078;8.578;2022-10-16T14:32:52;7.75;;;2.17;;
12088;SDS011;6107;49.078;8.578;2022-10-16T14:35:23;11.02;;;2.60;;
12088;SDS011;6107;49.078;8.578;2022-10-16T14:37:54;13.73;;;3.05;;
12088;SDS011;6107;49.078;8.578;2022-10-16T14:40:25;13.13;;;2.78;;
12088;SDS011;6107;49.078;8.578;2022-10-16T14:42:51;10.00;;;2.65;;
12088;SDS011;6107;49.078;8.578;2022-10-16T14:45:21;8.23;;;2.30;;
12088;SDS011;6107;49.078;8.578;2022-10-16T14:47:52;7.30;;;2.10;;
12088;SDS011;6107;49.078;8.578;2022-10-16T14:50:20;8.60;;;2.63;;
12088;SDS011;6107;49.078;8.578;2022-10-16T14:52:46;8.68;;;2.50;;
12088;SDS011;6107;49.078;8.578;2022-10-16T14:55:12;8.38;;;2.38;;
12088;SDS011;6107;49.078;8.578;2022-10-16T14:57:39;11.20;;;2.50;;
12088;SDS011;6107;49.078;8.578;2022-10-16T15:00:19;4.55;;;2.00;;
12088;SDS011;6107;49.078;8.578;2022-10-16T15:02:46;9.15;;;2.42;;
12088;SDS011;6107;49.078;8.578;2022-10-16T15:05:15;11.43;;;2.42;;
12088;SDS011;6107;49.078;8.578;2022-10-16T15:07:41;12.10;;;2.58;;
12088;SDS011;6107;49.078;8.578;2022-10-16T15:10:07;16.42;;;2.60;;
12088;SDS011;6107;49.078;8.578;2022-10-16T15:12:33;11.07;;;2.15;;
12088;SDS011;6107;49.078;8.578;2022-10-16T15:14:59;17.75;;;2.30;;
12088;SDS011;6107;49.078;8.578;2022-10-16T15:17:24;15.50;;;2.35;;
12088;SDS011;6107;49.078;8.578;2022-10-16T15:19:50;16.63;;;2.60;;
12088;SDS011;6107;49.078;8.578;2022-10-16T15:22:16;11.23;;;2.38;;
12088;SDS011;6107;49.078;8.578;2022-10-16T15:24:42;17.70;;;2.50;;
12088;SDS011;6107;49.078;8.578;2022-10-16T15:27:07;14.70;;;2.72;;
12088;SDS011;6107;49.078;8.578;2022-10-16T15:29:33;11.18;;;2.42;;
12088;SDS011;6107;49.078;8.578;2022-10-16T15:31:59;10.43;;;2.28;;
12088;SDS011;6107;49.078;8.578;2022-10-16T15:34:24;13.13;;;2.75;;
12088;SDS011;6107;49.078;8.578;2022-10-16T15:36:50;8.93;;;2.70;;
12088;SDS011;6107;49.078;8.578;2022-10-16T15:39:16;14.05;;;2.53;;
12088;SDS011;6107;49.078;8.578;2022-10-16T15:41:44;17.90;;;2.78;;
12088;SDS011;6107;49.078;8.578;2022-10-16T15:44:15;23.77;;;3.40;;
12088;SDS011;6107;49.078;8.578;2022-10-16T15:46:45;27.48;;;2.58;;
12088;SDS011;6107;49.078;8.578;2022-10-16T15:49:11;18.83;;;3.88;;
12088;SDS011;6107;49.078;8.578;2022-10-16T15:51:38;21.02;;;2.85;;
12088;SDS011;6107;49.078;8.578;2022-10-16T15:54:05;18.17;;;4.25;;
12088;SDS011;6107;49.078;8.578;2022-10-16T15:56:30;16.85;;;2.45;;
12088;SDS011;6107;49.078;8.578;2022-10-16T15:58:58;19.35;;;3.13;;
12088;SDS011;6107;49.078;8.578;2022-10-16T16:01:27;20.08;;;3.35;;
12088;SDS011;6107;49.078;8.578;2022-10-16T16:03:54;18.33;;;3.22;;
12088;SDS011;6107;49.078;8.578;2022-10-16T16:06:20;11.63;;;2.90;;
12088;SDS011;6107;49.078;8.578;2022-10-16T16:08:47;21.17;;;3.90;;
12088;SDS011;6107;49.078;8.578;2022-10-16T16:11:14;22.13;;;3.00;;
12088;SDS011;6107;49.078;8.578;2022-10-16T16:13:40;18.25;;;3.03;;
12088;SDS011;6107;49.078;8.578;2022-10-16T16:16:10;13.73;;;3.33;;
12088;SDS011;6107;49.078;8.578;2022-10-16T16:18:37;20.23;;;3.35;;
12088;SDS011;6107;49.078;8.578;2022-10-16T16:21:03;26.50;;;3.35;;
12088;SDS011;6107;49.078;8.578;2022-10-16T16:23:29;21.00;;;3.20;;
12088;SDS011;6107;49.078;8.578;2022-10-16T16:26:29;22.80;;;3.58;;
12088;SDS011;6107;49.078;8.578;2022-10-16T16:28:51;20.38;;;3.10;;
12088;SDS011;6107;49.078;8.578;2022-10-16T16:31:18;21.77;;;3.30;;
12088;SDS011;6107;49.078;8.578;2022-10-16T16:33:44;10.05;;;2.90;;
12088;SDS011;6107;49.078;8.578;2022-10-16T16:36:10;27.77;;;3.65;;
12088;SDS011;6107;49.078;8.578;2022-10-16T16:38:35;23.15;;;3.97;;
12088;SDS011;6107;49.078;8.578;2022-10-16T16:41:11;15.65;;;3.15;;
12088;SDS011;6107;49.078;8.578;2022-10-16T16:43:37;20.50;;;3.60;;
12088;SDS011;6107;49.078;8.578;2022-10-16T16:46:02;19.42;;;3.00;;
12088;SDS011;6107;49.078;8.578;2022-10-16T16:48:28;12.77;;;3.20;;
12088;SDS011;6107;49.078;8.578;2022-10-16T16:50:54;15.50;;;3.30;;